createdAt,value
2018-08-28T00:00:28.557Z,71.93
2018-08-28T00:02:56.108Z,70.97
2018-08-28T00:05:23.653Z,71.26
2018-08-28T00:07:51.250Z,71.52
2018-08-28T00:10:18.783Z,71.32
2018-08-28T00:12:46.333Z,72.05
2018-08-28T00:15:13.937Z,71.74
2018-08-28T00:17:41.683Z,72.00
2018-08-28T00:20:09.199Z,72.10
2018-08-28T00:22:36.748Z,71.71
2018-08-28T00:25:04.303Z,72.15
2018-08-28T00:27:31.785Z,72.52
2018-08-28T00:29:59.363Z,72.82
2018-08-28T00:32:26.919Z,72.91
2018-08-28T00:34:58.222Z,73.05
2018-08-28T00:37:25.773Z,72.95
2018-08-28T00:39:53.350Z,71.60
2018-08-28T00:42:20.946Z,71.52
2018-08-28T00:44:48.471Z,72.14
2018-08-28T00:47:16.048Z,72.63
2018-08-28T00:49:43.606Z,71.94
2018-08-28T00:52:11.141Z,72.45
2018-08-28T00:54:38.987Z,72.74
2018-08-28T00:57:06.529Z,72.92
2018-08-28T00:59:34.035Z,73.09
2018-08-28T01:02:01.580Z,73.19
2018-08-28T01:04:29.154Z,72.92
2018-08-28T01:06:56.687Z,73.05
2018-08-28T01:09:24.226Z,73.34
2018-08-28T01:11:51.747Z,73.49
2018-08-28T01:14:19.326Z,73.55
2018-08-28T01:16:46.855Z,73.86
2018-08-28T01:19:14.388Z,74.41
2018-08-28T01:21:42.004Z,74.11
2018-08-28T01:24:10.747Z,74.26
2018-08-28T01:26:38.287Z,74.19
2018-08-28T01:29:05.862Z,74.31
2018-08-28T01:31:35.118Z,74.87
2018-08-28T01:34:02.699Z,74.29
2018-08-28T01:36:30.258Z,74.40
2018-08-28T01:38:57.801Z,72.97
2018-08-28T01:41:25.369Z,73.84
2018-08-28T01:43:54.881Z,73.95
2018-08-28T01:46:22.417Z,74.47
2018-08-28T01:48:49.962Z,73.91
2018-08-28T01:51:17.658Z,73.68
2018-08-28T01:53:45.248Z,74.13
2018-08-28T01:56:12.967Z,73.65
2018-08-28T01:58:40.474Z,73.65
2018-08-28T02:01:08.066Z,73.49
2018-08-28T02:03:35.610Z,74.14
2018-08-28T02:06:03.154Z,74.51
2018-08-28T02:08:30.697Z,74.90
2018-08-28T02:10:58.210Z,75.72
2018-08-28T02:13:25.753Z,76.15
2018-08-28T02:15:53.947Z,76.24
2018-08-28T02:18:21.459Z,76.53
2018-08-28T02:20:48.993Z,76.44
2018-08-28T02:23:18.493Z,75.27
2018-08-28T02:25:46.036Z,75.35
2018-08-28T02:28:13.570Z,75.26
2018-08-28T02:30:41.158Z,75.99
2018-08-28T02:33:08.771Z,76.21
2018-08-28T02:35:36.319Z,75.88
2018-08-28T02:38:03.858Z,75.18
2018-08-28T02:40:31.405Z,74.73
2018-08-28T02:42:58.927Z,75.64
2018-08-28T02:45:26.447Z,76.31
2018-08-28T02:47:53.978Z,76.77
2018-08-28T02:50:21.475Z,76.80
2018-08-28T02:52:49.019Z,76.64
2018-08-28T02:55:16.552Z,76.54
2018-08-28T02:57:44.064Z,76.47
2018-08-28T03:00:11.592Z,77.07
2018-08-28T03:02:39.124Z,76.97
2018-08-28T03:05:06.766Z,76.71
2018-08-28T03:07:34.395Z,77.16
2018-08-28T03:10:01.935Z,77.32
2018-08-28T03:12:29.490Z,77.36
2018-08-28T03:14:57.031Z,77.67
2018-08-28T03:17:24.542Z,77.55
2018-08-28T03:19:52.178Z,77.44
2018-08-28T03:22:19.756Z,77.66
2018-08-28T03:24:47.291Z,77.23
2018-08-28T03:27:14.809Z,77.13
2018-08-28T03:29:42.329Z,77.98
2018-08-28T03:32:09.917Z,77.56
2018-08-28T03:34:37.475Z,77.47
2018-08-28T03:37:05.013Z,77.61
2018-08-28T03:39:32.610Z,77.31
2018-08-28T03:42:00.186Z,77.60
2018-08-28T03:44:27.713Z,77.57
2018-08-28T03:46:55.269Z,77.52
2018-08-28T03:49:22.847Z,77.63
2018-08-28T03:51:50.433Z,78.02
2018-08-28T03:54:17.898Z,78.15
2018-08-28T03:56:45.426Z,78.21
2018-08-28T03:59:12.931Z,78.04
2018-08-28T04:01:40.484Z,77.79
2018-08-28T04:04:07.986Z,78.12
2018-08-28T04:06:35.581Z,78.60
2018-08-28T04:09:04.134Z,78.15
2018-08-28T04:11:31.686Z,78.37
2018-08-28T04:13:59.245Z,78.50
2018-08-28T04:16:26.885Z,78.41
2018-08-28T04:18:54.422Z,78.76
2018-08-28T04:21:21.959Z,77.82
2018-08-28T04:23:49.466Z,78.58
2018-08-28T04:26:17.010Z,78.18
2018-08-28T04:28:44.541Z,77.94
2018-08-28T04:31:12.055Z,78.07
2018-08-28T04:33:39.687Z,77.71
2018-08-28T04:36:07.253Z,78.10
2018-08-28T04:38:34.759Z,77.75
2018-08-28T04:41:02.287Z,78.13
2018-08-28T04:43:30.170Z,77.97
2018-08-28T04:45:57.698Z,78.53
2018-08-28T04:48:26.042Z,78.41
2018-08-28T04:50:53.570Z,78.69
2018-08-28T04:53:21.116Z,79.40
2018-08-28T04:55:48.703Z,78.64
2018-08-28T04:58:16.271Z,78.76
2018-08-28T05:00:43.847Z,78.91
2018-08-28T05:03:11.355Z,79.50
2018-08-28T05:05:38.898Z,79.56
2018-08-28T05:08:06.414Z,79.51
2018-08-28T05:10:34.251Z,78.58
2018-08-28T05:13:01.797Z,78.20
2018-08-28T05:15:29.485Z,77.81
2018-08-28T05:17:57.152Z,78.53
2018-08-28T05:20:24.766Z,78.63
2018-08-28T05:22:52.264Z,78.83
2018-08-28T05:25:19.778Z,78.43
2018-08-28T05:27:48.055Z,78.99
2018-08-28T05:30:15.548Z,78.40
2018-08-28T05:32:43.272Z,78.89
2018-08-28T05:35:10.746Z,78.70
2018-08-28T05:37:38.251Z,79.09
2018-08-28T05:40:05.766Z,78.86
2018-08-28T05:42:34.239Z,78.34
2018-08-28T05:45:02.018Z,79.04
2018-08-28T05:47:29.612Z,79.72
2018-08-28T05:49:57.078Z,79.53
2018-08-28T05:52:24.578Z,79.64
2018-08-28T05:54:52.128Z,79.90
2018-08-28T05:57:19.594Z,80.17
2018-08-28T05:59:47.735Z,79.85
2018-08-28T06:02:15.746Z,79.21
2018-08-28T06:04:43.333Z,79.44
2018-08-28T06:07:10.823Z,79.56
2018-08-28T06:09:38.362Z,79.83
2018-08-28T06:12:06.056Z,79.64
2018-08-28T06:14:33.706Z,79.29
2018-08-28T06:17:01.272Z,78.92
2018-08-28T06:19:28.747Z,78.32
2018-08-28T06:21:56.234Z,77.38
2018-08-28T06:24:23.715Z,76.90
2018-08-28T06:26:51.359Z,77.44
2018-08-28T06:29:18.940Z,77.04
2018-08-28T06:31:46.456Z,77.55
2018-08-28T06:34:14.126Z,76.31
2018-08-28T06:36:41.755Z,75.79
2018-08-28T06:39:10.008Z,75.26
2018-08-28T06:41:37.691Z,75.13
2018-08-28T06:44:05.271Z,73.91
2018-08-28T06:46:33.016Z,72.61
2018-08-28T06:49:00.541Z,72.72
2018-08-28T06:51:28.067Z,71.12
2018-08-28T06:53:55.627Z,70.70
2018-08-28T06:56:23.233Z,70.78
2018-08-28T06:58:50.838Z,69.65
2018-08-28T07:01:18.521Z,69.73
2018-08-28T07:03:46.054Z,68.28
2018-08-28T07:06:13.483Z,67.47
2018-08-28T07:08:41.292Z,65.80
2018-08-28T07:11:08.768Z,63.48
2018-08-28T07:13:36.511Z,61.42
2018-08-28T07:16:04.167Z,59.24
2018-08-28T07:18:31.872Z,57.07
2018-08-28T07:20:59.446Z,55.08
2018-08-28T07:23:27.042Z,50.71
2018-08-28T07:25:54.574Z,50.92
2018-08-28T07:28:22.272Z,49.18
2018-08-28T07:30:49.973Z,49.94
2018-08-28T07:33:17.661Z,46.65
2018-08-28T07:35:45.281Z,45.20
2018-08-28T07:38:12.790Z,45.61
2018-08-28T07:40:40.353Z,44.93
2018-08-28T07:43:07.913Z,44.42
2018-08-28T07:45:35.776Z,42.60
2018-08-28T07:48:03.359Z,41.54
2018-08-28T07:50:30.931Z,41.17
2018-08-28T07:52:58.499Z,40.21
2018-08-28T07:55:26.078Z,38.81
2018-08-28T07:57:53.646Z,38.81
2018-08-28T08:00:21.254Z,37.83
2018-08-28T08:02:48.801Z,37.60
2018-08-28T08:05:16.390Z,36.24
2018-08-28T08:07:43.984Z,35.90
2018-08-28T08:10:11.583Z,35.04
2018-08-28T08:12:39.184Z,33.62
2018-08-28T08:15:06.771Z,33.34
2018-08-28T08:17:34.307Z,33.15
2018-08-28T08:20:01.856Z,33.25
2018-08-28T08:22:29.794Z,33.21
2018-08-28T08:24:57.459Z,30.79
2018-08-28T08:27:25.095Z,29.49
2018-08-28T08:29:52.635Z,29.36
2018-08-28T08:32:20.162Z,29.86
2018-08-28T08:34:47.686Z,28.74
2018-08-28T08:37:15.249Z,30.76
2018-08-28T08:39:42.807Z,29.57
2018-08-28T08:42:10.441Z,28.43
2018-08-28T08:44:38.031Z,28.50
2018-08-28T08:47:05.534Z,27.35
2018-08-28T08:49:33.030Z,27.30
2018-08-28T08:52:00.591Z,26.21
2018-08-28T08:54:28.119Z,27.09
2018-08-28T08:56:55.722Z,27.83
2018-08-28T08:59:23.263Z,28.53
2018-08-28T09:01:50.941Z,28.38
2018-08-28T09:04:18.547Z,28.62
2018-08-28T09:06:46.051Z,28.16
2018-08-28T09:09:13.827Z,28.70
2018-08-28T09:11:41.354Z,28.46
2018-08-28T09:14:08.947Z,27.58
2018-08-28T09:16:36.511Z,28.10
2018-08-28T09:19:04.111Z,29.29
2018-08-28T09:21:31.611Z,27.11
2018-08-28T09:24:00.158Z,26.07
2018-08-28T09:26:27.731Z,26.53
2018-08-28T09:28:55.342Z,27.46
2018-08-28T09:31:22.838Z,28.59
2018-08-28T09:33:50.403Z,28.08
2018-08-28T09:36:17.984Z,29.23
2018-08-28T09:38:45.584Z,29.15
2018-08-28T09:41:13.054Z,28.21
2018-08-28T09:43:40.601Z,28.41
2018-08-28T09:46:08.097Z,29.97
2018-08-28T09:48:35.740Z,30.81
2018-08-28T09:51:03.281Z,29.91
2018-08-28T09:53:30.806Z,28.78
2018-08-28T09:55:58.379Z,27.84
2018-08-28T09:58:25.897Z,27.66
2018-08-28T10:00:59.190Z,27.42
2018-08-28T10:03:26.692Z,27.98
2018-08-28T10:05:54.194Z,26.86
2018-08-28T10:08:21.722Z,25.42
2018-08-28T10:10:49.288Z,26.30
2018-08-28T10:13:16.726Z,27.92
2018-08-28T10:15:44.330Z,28.27
2018-08-28T10:18:11.850Z,28.05
2018-08-28T10:20:39.695Z,28.37
2018-08-28T10:23:07.271Z,29.30
2018-08-28T10:25:34.763Z,28.19
2018-08-28T10:28:02.294Z,27.97
2018-08-28T10:30:29.870Z,28.13
2018-08-28T10:32:57.396Z,27.20
2018-08-28T10:35:24.909Z,26.05
2018-08-28T10:37:52.430Z,25.01
2018-08-28T10:40:20.351Z,24.61
2018-08-28T10:42:47.925Z,24.29
2018-08-28T10:45:15.413Z,24.81
2018-08-28T10:47:42.927Z,25.65
2018-08-28T10:50:10.422Z,26.60
2018-08-28T10:52:37.950Z,25.94
2018-08-28T10:55:05.497Z,26.87
2018-08-28T10:57:33.006Z,26.20
2018-08-28T11:00:00.498Z,25.50
2018-08-28T11:02:28.085Z,26.15
2018-08-28T11:04:55.699Z,28.49
2018-08-28T11:07:23.209Z,28.37
2018-08-28T11:09:50.704Z,28.65
2018-08-28T11:12:18.174Z,28.42
2018-08-28T11:14:45.746Z,29.51
2018-08-28T11:17:13.286Z,30.63
2018-08-28T11:19:40.855Z,29.95
2018-08-28T11:22:08.426Z,29.89
2018-08-28T11:24:36.045Z,29.32
2018-08-28T11:27:03.552Z,29.07
2018-08-28T11:29:31.099Z,28.31
2018-08-28T11:31:58.626Z,29.19
2018-08-28T11:34:26.186Z,29.12
2018-08-28T11:36:54.150Z,28.45
2018-08-28T11:39:21.607Z,27.46
2018-08-28T11:41:49.117Z,29.16
2018-08-28T11:44:16.639Z,29.77
2018-08-28T11:46:44.120Z,30.36
2018-08-28T11:49:11.748Z,30.29
2018-08-28T11:51:39.308Z,29.42
2018-08-28T11:54:07.042Z,30.55
2018-08-28T11:56:34.652Z,31.10
2018-08-28T11:59:02.138Z,30.79
2018-08-28T12:01:29.654Z,30.76
2018-08-28T12:03:57.151Z,30.07
2018-08-28T12:06:24.649Z,30.11
2018-08-28T12:08:52.126Z,30.02
2018-08-28T12:11:19.613Z,29.34
2018-08-28T12:13:47.100Z,30.53
2018-08-28T12:16:14.623Z,30.43
2018-08-28T12:18:42.158Z,31.50
2018-08-28T12:21:09.727Z,31.14
2018-08-28T12:23:37.271Z,31.15
2018-08-28T12:26:04.761Z,30.57
2018-08-28T12:28:32.322Z,31.09
2018-08-28T12:30:59.823Z,31.37
2018-08-28T12:33:27.276Z,30.69
2018-08-28T12:35:55.143Z,31.08
2018-08-28T12:38:22.679Z,30.98
2018-08-28T12:40:50.191Z,31.78
2018-08-28T12:43:17.970Z,31.44
2018-08-28T12:45:45.518Z,30.69
2018-08-28T12:48:12.986Z,29.80
2018-08-28T12:50:40.500Z,30.45
2018-08-28T12:53:08.029Z,31.47
2018-08-28T12:55:35.614Z,31.29
2018-08-28T12:58:03.290Z,31.00
2018-08-28T13:00:30.918Z,30.74
2018-08-28T13:02:58.330Z,31.46
2018-08-28T13:05:26.035Z,31.44
2018-08-28T13:07:53.655Z,30.90
2018-08-28T13:10:21.210Z,31.25
2018-08-28T13:12:48.751Z,31.88
2018-08-28T13:15:16.208Z,32.15
2018-08-28T13:17:43.725Z,31.95
2018-08-28T13:20:11.306Z,32.68
2018-08-28T13:22:38.819Z,31.72
2018-08-28T13:25:06.775Z,31.59
2018-08-28T13:27:34.291Z,32.40
2018-08-28T13:30:01.858Z,32.55
2018-08-28T13:32:29.342Z,32.32
2018-08-28T13:34:57.842Z,32.66
2018-08-28T13:37:25.339Z,31.73
2018-08-28T13:39:52.839Z,31.90
2018-08-28T13:42:20.388Z,32.32
2018-08-28T13:44:47.891Z,32.69
2018-08-28T13:47:16.670Z,32.82
2018-08-28T13:49:44.132Z,32.98
2018-08-28T13:52:11.746Z,32.55
2018-08-28T13:54:39.262Z,32.56
2018-08-28T13:57:06.778Z,33.69
2018-08-28T13:59:34.293Z,34.08
2018-08-28T14:02:01.792Z,33.74
2018-08-28T14:04:29.307Z,34.37
2018-08-28T14:06:56.814Z,34.87
2018-08-28T14:09:24.426Z,33.65
2018-08-28T14:11:51.941Z,34.68
2018-08-28T14:14:19.463Z,34.37
2018-08-28T14:16:46.963Z,34.62
2018-08-28T14:19:14.491Z,34.40
2018-08-28T14:21:42.051Z,34.74
2018-08-28T14:24:09.697Z,34.46
2018-08-28T14:26:37.250Z,33.99
2018-08-28T14:29:04.820Z,34.15
2018-08-28T14:31:32.369Z,35.28
2018-08-28T14:33:59.923Z,34.18
2018-08-28T14:36:27.570Z,34.11
2018-08-28T14:38:55.340Z,33.29
2018-08-28T14:41:22.848Z,33.21
2018-08-28T14:43:50.379Z,34.22
2018-08-28T14:46:17.894Z,34.57
2018-08-28T14:48:45.602Z,34.22
2018-08-28T14:51:13.062Z,35.26
2018-08-28T14:53:42.178Z,34.02
2018-08-28T14:56:09.955Z,34.27
2018-08-28T14:58:37.462Z,33.51
2018-08-28T15:01:05.025Z,33.51
2018-08-28T15:03:32.911Z,33.91
2018-08-28T15:06:00.412Z,34.43
2018-08-28T15:08:28.298Z,35.53
2018-08-28T15:10:55.842Z,36.18
2018-08-28T15:13:23.353Z,36.38
2018-08-28T15:15:50.919Z,36.18
2018-08-28T15:18:18.426Z,35.48
2018-08-28T15:20:45.964Z,36.24
2018-08-28T15:23:13.441Z,35.42
2018-08-28T15:25:41.095Z,36.07
2018-08-28T15:28:08.578Z,36.08
2018-08-28T15:30:36.162Z,35.53
2018-08-28T15:33:03.660Z,36.24
2018-08-28T15:35:31.175Z,37.00
2018-08-28T15:37:58.700Z,36.01
2018-08-28T15:40:26.270Z,36.08
2018-08-28T15:42:53.833Z,36.73
2018-08-28T15:45:21.381Z,37.42
2018-08-28T15:47:48.884Z,36.68
2018-08-28T15:50:16.469Z,36.95
2018-08-28T15:52:43.960Z,36.71
2018-08-28T15:55:11.463Z,37.14
2018-08-28T15:57:39.046Z,37.65
2018-08-28T16:00:06.666Z,38.61
2018-08-28T16:02:34.247Z,37.31
2018-08-28T16:05:01.855Z,37.54
2018-08-28T16:07:29.350Z,38.37
2018-08-28T16:09:56.878Z,39.03
2018-08-28T16:12:24.474Z,39.64
2018-08-28T16:14:52.069Z,39.89
2018-08-28T16:17:19.705Z,39.56
2018-08-28T16:19:47.193Z,39.70
2018-08-28T16:22:18.983Z,39.72
2018-08-28T16:24:46.474Z,39.57
2018-08-28T16:27:14.024Z,39.85
2018-08-28T16:29:41.666Z,40.13
2018-08-28T16:32:09.199Z,40.92
2018-08-28T16:34:36.721Z,41.58
2018-08-28T16:37:04.207Z,40.84
2018-08-28T16:39:31.835Z,40.48
2018-08-28T16:41:59.431Z,41.52
2018-08-28T16:44:26.938Z,41.34
2018-08-28T16:46:54.611Z,41.27
2018-08-28T16:49:22.227Z,41.06
2018-08-28T16:51:49.846Z,42.05
2018-08-28T16:54:17.450Z,42.22
2018-08-28T16:56:44.938Z,42.13
2018-08-28T16:59:12.461Z,42.83
2018-08-28T17:01:40.196Z,42.26
2018-08-28T17:04:07.743Z,42.51
2018-08-28T17:06:35.228Z,42.50
2018-08-28T17:09:04.432Z,42.80
2018-08-28T17:11:31.947Z,42.01
2018-08-28T17:13:59.446Z,42.48
2018-08-28T17:16:27.004Z,42.70
2018-08-28T17:18:54.623Z,42.57
2018-08-28T17:21:23.119Z,42.73
2018-08-28T17:23:50.735Z,43.26
2018-08-28T17:26:18.205Z,43.39
2018-08-28T17:28:45.715Z,43.50
2018-08-28T17:31:13.515Z,43.34
2018-08-28T17:33:41.060Z,43.24
2018-08-28T17:36:08.710Z,43.67
2018-08-28T17:38:36.231Z,43.72
2018-08-28T17:41:03.814Z,43.80
2018-08-28T17:43:31.487Z,44.57
2018-08-28T17:45:58.982Z,44.98
2018-08-28T17:48:26.518Z,44.27
2018-08-28T17:50:54.135Z,44.99
2018-08-28T17:53:21.644Z,45.75
2018-08-28T17:55:49.162Z,45.44
2018-08-28T17:58:16.676Z,44.78
2018-08-28T18:00:44.228Z,44.61
2018-08-28T18:03:11.740Z,44.31
2018-08-28T18:05:39.390Z,44.66
2018-08-28T18:08:06.964Z,44.77
2018-08-28T18:10:34.655Z,44.98
2018-08-28T18:13:02.270Z,45.71
2018-08-28T18:15:29.962Z,45.13
2018-08-28T18:17:57.507Z,45.33
2018-08-28T18:20:25.183Z,45.71
2018-08-28T18:22:53.026Z,45.68
2018-08-28T18:25:20.540Z,46.45
2018-08-28T18:27:48.042Z,46.77
2018-08-28T18:30:15.710Z,46.32
2018-08-28T18:32:44.239Z,46.52
2018-08-28T18:35:11.904Z,46.74
2018-08-28T18:37:39.571Z,47.00
2018-08-28T18:40:07.182Z,47.21
2018-08-28T18:42:34.717Z,48.34
2018-08-28T18:45:02.358Z,48.98
2018-08-28T18:47:29.906Z,49.34
2018-08-28T18:49:57.569Z,49.10
2018-08-28T18:52:25.097Z,48.78
2018-08-28T18:54:52.767Z,49.04
2018-08-28T18:57:20.433Z,49.88
2018-08-28T18:59:47.970Z,50.57
2018-08-28T19:02:15.507Z,50.68
2018-08-28T19:04:43.020Z,51.08
2018-08-28T19:07:10.569Z,51.62
2018-08-28T19:09:38.267Z,51.70
2018-08-28T19:12:05.785Z,51.76
2018-08-28T19:14:33.429Z,51.79
2018-08-28T19:17:01.071Z,52.00
2018-08-28T19:19:28.548Z,52.48
2018-08-28T19:21:56.062Z,52.40
2018-08-28T19:24:23.639Z,53.10
2018-08-28T19:26:51.282Z,52.91
2018-08-28T19:29:18.840Z,53.56
2018-08-28T19:31:46.442Z,53.63
2018-08-28T19:34:13.909Z,53.45
2018-08-28T19:36:41.526Z,54.26
2018-08-28T19:39:09.054Z,53.45
2018-08-28T19:41:36.768Z,53.24
2018-08-28T19:44:04.303Z,53.92
2018-08-28T19:46:31.800Z,53.39
2018-08-28T19:48:59.326Z,53.16
2018-08-28T19:51:26.823Z,52.91
2018-08-28T19:53:54.391Z,53.39
2018-08-28T19:56:22.067Z,53.10
2018-08-28T19:58:49.550Z,53.57
2018-08-28T20:01:17.076Z,53.61
2018-08-28T20:03:45.288Z,53.61
2018-08-28T20:06:13.197Z,53.95
2018-08-28T20:08:40.857Z,54.17
2018-08-28T20:11:08.366Z,53.47
2018-08-28T20:13:35.893Z,53.71
2018-08-28T20:16:03.414Z,53.90
2018-08-28T20:18:30.987Z,54.13
2018-08-28T20:20:58.537Z,53.73
2018-08-28T20:23:26.058Z,53.85
2018-08-28T20:25:54.611Z,53.60
2018-08-28T20:28:22.101Z,53.52
2018-08-28T20:30:49.591Z,53.28
2018-08-28T20:33:17.234Z,53.16
2018-08-28T20:35:44.884Z,53.40
2018-08-28T20:38:12.412Z,53.55
2018-08-28T20:40:39.942Z,53.07
2018-08-28T20:43:07.444Z,52.75
2018-08-28T20:45:34.979Z,52.54
2018-08-28T20:48:02.536Z,52.72
2018-08-28T20:50:30.078Z,52.58
2018-08-28T20:52:57.592Z,52.50
2018-08-28T20:55:25.391Z,52.65
2018-08-28T20:57:53.337Z,52.36
2018-08-28T21:00:20.973Z,52.49
2018-08-28T21:02:48.493Z,52.06
2018-08-28T21:05:20.659Z,52.71
2018-08-28T21:07:48.502Z,52.38
2018-08-28T21:10:16.219Z,52.81
2018-08-28T21:12:44.042Z,52.72
2018-08-28T21:15:11.699Z,52.22
2018-08-28T21:17:39.205Z,52.83
2018-08-28T21:20:07.126Z,52.64
2018-08-28T21:22:34.620Z,53.07
2018-08-28T21:25:02.652Z,53.20
2018-08-28T21:27:30.275Z,53.52
2018-08-28T21:29:57.794Z,53.57
2018-08-28T21:32:25.455Z,53.23
2018-08-28T21:34:52.982Z,53.73
2018-08-28T21:37:20.586Z,53.51
2018-08-28T21:39:48.050Z,54.04
2018-08-28T21:42:15.620Z,54.11
2018-08-28T21:44:43.077Z,54.10
2018-08-28T21:47:10.734Z,54.21
2018-08-28T21:49:38.372Z,54.58
2018-08-28T21:52:05.945Z,54.12
2018-08-28T21:54:33.726Z,54.67
2018-08-28T21:57:01.341Z,54.95
2018-08-28T21:59:28.955Z,54.91
2018-08-28T22:01:56.479Z,54.92
2018-08-28T22:04:23.978Z,55.17
2018-08-28T22:07:55.184Z,54.91
2018-08-28T22:10:22.691Z,55.54
2018-08-28T22:12:50.182Z,55.84
2018-08-28T22:15:17.682Z,55.85
2018-08-28T22:17:45.160Z,55.90
2018-08-28T22:20:12.655Z,55.67
2018-08-28T22:22:40.278Z,55.95
2018-08-28T22:25:07.866Z,56.61
2018-08-28T22:27:35.612Z,56.22
2018-08-28T22:30:03.614Z,56.57
2018-08-28T22:32:31.282Z,56.84
2018-08-28T22:34:58.778Z,56.55
2018-08-28T22:37:26.290Z,56.41
2018-08-28T22:39:53.951Z,56.15
2018-08-28T22:42:21.621Z,56.20
2018-08-28T22:44:49.255Z,56.17
2018-08-28T22:47:16.726Z,56.51
2018-08-28T22:49:44.209Z,56.49
2018-08-28T22:52:11.891Z,56.66
2018-08-28T22:54:39.499Z,56.78
2018-08-28T22:57:06.999Z,57.18
2018-08-28T22:59:34.686Z,56.82
2018-08-28T23:02:02.579Z,57.32
2018-08-28T23:04:30.375Z,57.58
2018-08-28T23:06:57.901Z,57.51
2018-08-28T23:09:25.500Z,57.48
2018-08-28T23:11:53.031Z,57.27
2018-08-28T23:14:20.630Z,57.51
2018-08-28T23:16:48.253Z,58.24
2018-08-28T23:19:16.497Z,58.26
2018-08-28T23:21:44.037Z,58.10
2018-08-28T23:24:11.528Z,58.42
2018-08-28T23:26:38.977Z,58.71
2018-08-28T23:29:06.514Z,58.99
2018-08-28T23:31:34.053Z,59.12
2018-08-28T23:34:01.618Z,59.44
2018-08-28T23:36:29.210Z,59.35
2018-08-28T23:38:56.711Z,59.64
2018-08-28T23:41:24.426Z,58.65
2018-08-28T23:43:51.950Z,58.54
2018-08-28T23:46:19.477Z,58.44
2018-08-28T23:48:46.968Z,58.78
2018-08-28T23:51:14.470Z,58.60
2018-08-28T23:53:41.958Z,58.89
2018-08-28T23:56:09.494Z,59.46
2018-08-28T23:58:37.030Z,59.55
